Time;durP1;ratioP1;P1;durP2;ratioP2;P2;SDS_P1;SDS_P2;PMS_P1;PMS_P2;Temp;Humidity;BMP_temperature;BMP_pressure;BME280_temperature;BME280_humidity;BME280_pressure;Samples;Min_cycle;Max_cycle;Signal;HPM_P1;HPM_P2
2023/09/26 00:03:43;;;;;;;30.00;22.40;;;;;;;16.31;89.55;99720.47;225950;1278;138908;-73
2023/09/26 00:08:46;;;;;;;28.70;21.60;;;;;;;16.30;89.31;99714.48;225997;1278;22557;-72
2023/09/26 00:13:49;;;;;;;27.60;21.40;;;;;;;16.32;89.56;99716.20;226000;1256;138596;-73
2023/09/26 00:18:51;;;;;;;27.00;20.00;;;;;;;16.31;89.37;99712.84;226007;1276;138707;-72
2023/09/26 00:23:53;;;;;;;28.30;21.40;;;;;;;16.33;89.55;99713.20;225908;1275;138778;-71
2023/09/26 00:28:55;;;;;;;25.80;20.40;;;;;;;16.34;89.22;99713.02;225964;1275;138814;-72
2023/09/26 00:33:57;;;;;;;28.70;22.30;;;;;;;16.34;89.17;99715.77;225973;1276;138747;-72
2023/09/26 00:38:59;;;;;;;29.20;21.20;;;;;;;16.34;89.12;99714.71;226077;1275;22536;-72
2023/09/26 00:44:01;;;;;;;32.80;24.30;;;;;;;16.36;89.29;99711.08;225903;1275;138678;-72
2023/09/26 00:49:04;;;;;;;32.40;24.60;;;;;;;16.38;89.25;99707.02;225954;1272;138689;-72
2023/09/26 00:54:09;;;;;;;35.60;26.20;;;;;;;16.40;89.35;99702.66;225953;1276;138760;-72
2023/09/26 00:59:11;;;;;;;34.10;25.30;;;;;;;16.41;89.19;99696.72;225970;1275;138729;-72
2023/09/26 01:04:13;;;;;;;35.70;27.60;;;;;;;16.41;89.11;99696.80;225971;1272;138782;-72
2023/09/26 01:09:17;;;;;;;38.10;27.20;;;;;;;16.42;89.22;99702.56;226069;1275;23117;-72
2023/09/26 01:14:19;;;;;;;39.40;26.60;;;;;;;16.44;89.04;99703.88;225924;1275;138992;-72
2023/09/26 01:19:21;;;;;;;37.20;28.40;;;;;;;16.45;89.19;99705.52;225976;1275;139094;-72
2023/09/26 01:24:23;;;;;;;36.90;28.40;;;;;;;16.45;89.22;99709.30;225901;1279;138908;-72
2023/09/26 01:29:25;;;;;;;29.50;24.80;;;;;;;16.44;89.07;99708.06;225957;1279;138186;-72
2023/09/26 01:34:27;;;;;;;32.20;24.50;;;;;;;16.41;88.97;99710.55;225965;1275;138959;-73
2023/09/26 01:39:30;;;;;;;33.00;24.30;;;;;;;16.37;89.06;99709.67;225885;1276;166447;-72
2023/09/26 01:44:32;;;;;;;32.40;24.20;;;;;;;16.34;89.17;99710.80;226104;1276;22643;-71
2023/09/26 01:49:36;;;;;;;33.70;23.40;;;;;;;16.36;89.28;99713.94;225853;1277;138252;-72
2023/09/26 01:54:38;;;;;;;34.00;23.60;;;;;;;16.38;89.43;99708.28;225959;1272;138921;-71
2023/09/26 01:59:43;;;;;;;28.90;21.40;;;;;;;16.41;89.34;99705.79;225892;1279;138800;-72
2023/09/26 02:04:44;;;;;;;30.70;22.10;;;;;;;16.41;89.32;99703.08;225985;1278;138745;-72
2023/09/26 02:09:47;;;;;;;26.80;21.10;;;;;;;16.42;89.27;99702.30;225892;1278;138908;-72
2023/09/26 02:14:49;;;;;;;27.00;20.20;;;;;;;16.42;89.28;99692.91;226054;1276;22549;-72
2023/09/26 02:19:51;;;;;;;25.20;19.10;;;;;;;16.42;89.34;99691.35;225949;1256;139574;-72
2023/09/26 02:24:54;;;;;;;25.20;19.10;;;;;;;16.43;89.42;99691.48;225798;1276;138613;-72
2023/09/26 02:29:56;;;;;;;23.10;19.00;;;;;;;16.44;89.24;99692.96;225904;1265;138915;-72
2023/09/26 02:34:58;;;;;;;23.00;18.50;;;;;;;16.44;89.36;99697.02;225946;1276;139931;-71
2023/09/26 02:40:05;;;;;;;21.60;17.40;;;;;;;16.45;89.55;99696.66;226033;1275;139057;-71
2023/09/26 02:45:08;;;;;;;23.60;19.00;;;;;;;16.46;89.37;99692.92;226158;1272;25231;-72
2023/09/26 02:50:10;;;;;;;30.00;20.30;;;;;;;16.49;89.60;99695.48;225820;1278;138673;-72
2023/09/26 02:55:12;;;;;;;26.10;18.80;;;;;;;16.50;89.63;99695.45;225891;1280;138627;-72
2023/09/26 03:00:17;;;;;;;26.40;20.00;;;;;;;16.50;89.42;99694.59;225909;1280;138732;-72
2023/09/26 03:05:20;;;;;;;29.40;20.80;;;;;;;16.51;89.46;99691.06;225869;1277;138891;-72
2023/09/26 03:10:23;;;;;;;26.90;20.40;;;;;;;16.53;89.61;99697.19;225922;1280;138868;-74
2023/09/26 03:15:25;;;;;;;21.90;16.80;;;;;;;16.56;89.57;99696.49;226053;1278;22551;-73
2023/09/26 03:20:27;;;;;;;25.10;19.30;;;;;;;16.57;89.74;99697.52;226043;1278;139170;-72
2023/09/26 03:25:32;;;;;;;25.50;19.00;;;;;;;16.56;89.42;99691.77;225885;1276;138954;-72
2023/09/26 03:30:34;;;;;;;23.60;19.50;;;;;;;16.55;89.47;99693.49;226020;1276;138750;-71
2023/09/26 03:35:37;;;;;;;23.20;17.40;;;;;;;16.57;89.55;99690.10;226123;1275;138767;-72
2023/09/26 03:40:39;;;;;;;26.30;18.80;;;;;;;16.58;89.44;99695.64;226079;1273;139170;-72
2023/09/26 03:45:41;;;;;;;27.10;19.80;;;;;;;16.59;89.53;99690.72;226016;1278;139553;-72
2023/09/26 03:50:46;;;;;;;23.10;17.40;;;;;;;16.61;89.76;99686.58;226062;1278;22563;-72
2023/09/26 03:55:57;;;;;;;19.30;14.40;;;;;;;16.64;90.01;99681.58;226072;1277;138420;-72
2023/09/26 04:01:09;;;;;;;18.20;14.20;;;;;;;16.62;89.54;99677.34;225879;1277;138828;-72
2023/09/26 04:06:12;;;;;;;20.60;15.00;;;;;;;16.58;89.46;99677.13;226038;1275;138739;-72
2023/09/26 04:11:15;;;;;;;22.30;15.90;;;;;;;16.58;89.56;99676.30;226044;1275;138837;-71
2023/09/26 04:16:18;;;;;;;19.30;14.80;;;;;;;16.58;89.76;99676.75;226049;1280;138909;-72
2023/09/26 04:21:20;;;;;;;23.10;16.20;;;;;;;16.57;89.65;99674.45;226191;1275;22535;-72
2023/09/26 04:26:23;;;;;;;22.00;15.70;;;;;;;16.57;89.80;99677.25;226028;1262;138353;-72
2023/09/26 04:31:25;;;;;;;25.10;16.90;;;;;;;16.57;89.78;99682.09;225967;1276;139007;-72
2023/09/26 04:36:29;;;;;;;23.80;16.30;;;;;;;16.53;89.89;99687.70;225997;1272;138771;-72
2023/09/26 04:41:31;;;;;;;19.90;15.00;;;;;;;16.54;90.10;99691.77;225971;1275;138787;-73
2023/09/26 04:46:33;;;;;;;20.20;15.50;;;;;;;16.57;90.20;99692.64;226039;1278;138831;-73
2023/09/26 04:51:35;;;;;;;20.90;15.20;;;;;;;16.56;90.13;99693.79;226048;1278;138711;-73
2023/09/26 04:56:36;;;;;;;22.80;15.90;;;;;;;16.56;89.91;99693.27;226137;1275;22554;-72
2023/09/26 05:01:39;;;;;;;21.90;16.00;;;;;;;16.55;89.97;99699.00;226011;1278;138556;-73
2023/09/26 05:06:41;;;;;;;23.50;16.50;;;;;;;16.57;90.13;99699.00;225910;1278;138839;-73
2023/09/26 05:11:43;;;;;;;24.60;16.90;;;;;;;16.61;90.33;99700.65;225935;1277;138734;-73
2023/09/26 05:16:45;;;;;;;23.70;16.80;;;;;;;16.62;90.36;99697.45;226003;1275;138872;-73
2023/09/26 05:21:47;;;;;;;23.40;15.80;;;;;;;16.62;90.30;99694.20;225843;1278;138848;-73
2023/09/26 05:26:50;;;;;;;19.70;14.60;;;;;;;16.61;90.19;99694.55;226167;1275;22543;-73
2023/09/26 05:31:51;;;;;;;22.30;16.00;;;;;;;16.62;90.38;99697.83;225983;1278;138462;-73
2023/09/26 05:36:54;;;;;;;23.30;14.70;;;;;;;16.64;90.28;99698.77;226078;1275;138914;-73
2023/09/26 05:41:56;;;;;;;24.00;16.40;;;;;;;16.68;90.51;99699.48;225727;1268;138938;-73
2023/09/26 05:46:59;;;;;;;20.30;14.60;;;;;;;16.74;90.68;99706.73;225738;1260;139849;-73
2023/09/26 05:52:02;;;;;;;18.10;14.00;;;;;;;16.77;90.30;99706.51;225602;1276;139001;-72
2023/09/26 05:57:04;;;;;;;22.00;14.90;;;;;;;16.78;90.41;99705.59;225751;1268;22987;-73
2023/09/26 06:02:13;;;;;;;18.00;14.40;;;;;;;16.81;90.31;99704.00;225579;1262;138455;-73
2023/09/26 06:07:18;;;;;;;18.80;13.60;;;;;;;16.86;90.28;99701.05;225423;1262;139151;-77
2023/09/26 06:12:20;;;;;;;18.30;13.70;;;;;;;16.92;90.32;99702.52;225391;1268;138862;-74
2023/09/26 06:17:22;;;;;;;17.50;13.20;;;;;;;17.01;90.59;99700.71;225449;1266;138796;-75
2023/09/26 06:22:24;;;;;;;18.90;13.30;;;;;;;17.10;90.33;99703.40;225701;1276;138846;-74
2023/09/26 06:27:26;;;;;;;15.50;12.70;;;;;;;17.16;89.92;99709.70;225655;1260;22540;-74
2023/09/26 06:32:28;;;;;;;15.30;12.30;;;;;;;17.22;89.74;99712.14;225565;1265;138420;-73
2023/09/26 06:37:30;;;;;;;16.10;12.20;;;;;;;17.30;89.88;99711.45;225711;1280;139169;-74
2023/09/26 06:42:33;;;;;;;18.10;13.00;;;;;;;17.38;89.88;99706.61;225656;1269;138724;-74
2023/09/26 06:47:38;;;;;;;16.60;12.90;;;;;;;17.48;89.75;99704.45;225894;1278;138817;-74
2023/09/26 06:52:41;;;;;;;15.50;12.10;;;;;;;17.61;89.52;99711.00;225590;1257;138921;-74
2023/09/26 06:57:43;;;;;;;17.60;12.10;;;;;;;17.71;89.19;99705.47;225205;1278;139020;-73
2023/09/26 07:02:46;;;;;;;17.70;13.00;;;;;;;17.79;88.79;99705.90;225386;1277;22538;-72
2023/09/26 07:07:48;;;;;;;20.50;13.40;;;;;;;17.87;88.54;99708.95;225259;1275;138379;-72
2023/09/26 07:12:51;;;;;;;17.40;13.90;;;;;;;17.95;88.60;99711.30;225368;1257;138712;-72
2023/09/26 07:17:54;;;;;;;17.10;13.60;;;;;;;18.03;88.13;99709.66;225149;1258;138920;-73
2023/09/26 07:22:56;;;;;;;18.90;13.30;;;;;;;18.14;88.23;99707.41;225104;1272;138944;-72
2023/09/26 07:27:58;;;;;;;17.70;13.40;;;;;;;18.30;88.06;99711.81;225361;1278;139191;-72
2023/09/26 07:33:00;;;;;;;17.80;12.50;;;;;;;18.35;87.64;99712.16;225412;1267;22543;-72
2023/09/26 07:38:02;;;;;;;17.70;12.40;;;;;;;18.43;87.69;99710.30;225655;1275;138638;-72
2023/09/26 07:43:04;;;;;;;15.20;12.20;;;;;;;18.52;87.40;99709.54;225479;1275;138554;-72
2023/09/26 07:48:06;;;;;;;16.30;12.30;;;;;;;18.59;87.10;99710.98;225750;1280;139148;-71
2023/09/26 07:53:09;;;;;;;14.10;11.40;;;;;;;18.70;87.16;99712.65;225645;1262;138955;-72
2023/09/26 07:58:11;;;;;;;15.50;12.30;;;;;;;18.75;86.71;99708.94;225730;1275;138738;-72
2023/09/26 08:03:13;;;;;;;18.60;13.50;;;;;;;18.83;86.63;99709.73;225486;1262;22556;-74
2023/09/26 08:08:16;;;;;;;16.00;12.80;;;;;;;19.01;86.84;99710.61;225112;1272;138721;-73
2023/09/26 08:13:17;;;;;;;15.00;11.40;;;;;;;19.22;86.63;99713.60;225162;1279;138873;-74
2023/09/26 08:18:20;;;;;;;15.10;11.40;;;;;;;19.34;86.03;99716.64;225151;1256;139564;-73
2023/09/26 08:23:22;;;;;;;14.50;11.70;;;;;;;19.46;85.75;99715.13;224755;1278;138927;-73
2023/09/26 08:28:25;;;;;;;14.10;12.70;;;;;;;19.55;85.14;99720.80;225456;1256;138788;-74
2023/09/26 08:33:27;;;;;;;14.90;13.30;;;;;;;19.62;84.89;99719.42;225666;1272;22571;-73
2023/09/26 08:38:30;;;;;;;15.60;14.00;;;;;;;19.68;84.60;99720.80;225591;1257;138172;-74
2023/09/26 08:43:33;;;;;;;16.50;13.90;;;;;;;19.81;84.53;99717.23;225555;1276;138716;-73
2023/09/26 08:48:35;;;;;;;17.80;14.80;;;;;;;19.95;84.18;99715.13;225413;1273;139879;-73
2023/09/26 08:53:37;;;;;;;15.40;13.80;;;;;;;20.10;83.75;99714.58;225638;1262;138878;-74
2023/09/26 08:58:41;;;;;;;18.40;16.40;;;;;;;20.32;83.71;99718.09;225752;1272;138762;-73
2023/09/26 09:03:43;;;;;;;20.00;17.00;;;;;;;20.42;83.09;99719.38;225489;1278;138768;-73
2023/09/26 09:08:45;;;;;;;19.30;16.10;;;;;;;20.50;82.90;99721.05;225476;1278;22594;-73
2023/09/26 09:13:49;;;;;;;19.00;15.90;;;;;;;20.70;83.14;99723.54;225157;1262;138418;-73
2023/09/26 09:18:57;;;;;;;19.00;15.90;;;;;;;20.88;82.36;99719.20;225346;1262;138721;-73
2023/09/26 09:24:04;;;;;;;18.40;16.30;;;;;;;21.05;82.09;99711.17;225355;1257;138838;-74
2023/09/26 09:29:20;;;;;;;21.70;18.70;;;;;;;21.28;81.66;99712.15;225525;1273;138868;-74
2023/09/26 09:34:25;;;;;;;20.90;18.70;;;;;;;21.39;81.00;99712.84;225394;1263;138828;-74
2023/09/26 09:39:28;;;;;;;22.20;17.60;;;;;;;21.56;80.76;99709.42;225588;1266;22548;-74
2023/09/26 09:44:30;;;;;;;20.30;17.80;;;;;;;21.73;80.52;99708.79;225294;1263;153722;-74
2023/09/26 09:49:41;;;;;;;24.50;21.50;;;;;;;21.85;79.77;99704.92;225596;1260;138557;-72
2023/09/26 09:54:45;;;;;;;28.90;23.60;;;;;;;21.90;79.27;99703.52;225635;1275;138721;-73
2023/09/26 09:59:48;;;;;;;27.50;22.90;;;;;;;21.85;78.73;99707.08;225800;1266;138940;-72
2023/09/26 10:04:55;;;;;;;27.40;23.10;;;;;;;21.95;78.71;99702.39;225636;1270;138897;-73
2023/09/26 10:09:58;;;;;;;27.00;22.00;;;;;;;21.86;78.08;99698.27;225611;1276;138896;-73
2023/09/26 10:15:00;;;;;;;24.90;22.20;;;;;;;21.85;78.65;99694.42;225498;1265;22525;-71
2023/09/26 10:20:03;;;;;;;24.10;21.10;;;;;;;21.92;78.76;99690.15;225621;1272;138610;-73
2023/09/26 10:25:27;;;;;;;25.30;20.10;;;;;;;22.08;78.59;99688.41;225576;1257;138760;-71
2023/09/26 10:30:41;;;;;;;23.00;20.30;;;;;;;22.22;78.16;99686.73;225527;1276;138753;-71
2023/09/26 10:35:44;;;;;;;19.40;17.40;;;;;;;22.14;77.83;99682.86;225277;1256;139256;-73
2023/09/26 10:40:47;;;;;;;21.30;17.70;;;;;;;22.02;77.74;99675.63;225571;1262;138120;-73
2023/09/26 10:45:49;;;;;;;18.30;16.40;;;;;;;21.97;78.14;99671.04;225236;1278;139704;-73
2023/09/26 10:50:52;;;;;;;20.00;16.30;;;;;;;21.93;77.87;99664.13;225275;1270;22521;-79
2023/09/26 10:55:54;;;;;;;17.20;15.40;;;;;;;21.82;78.05;99666.22;225090;1258;139289;-73
2023/09/26 11:00:57;;;;;;;17.90;16.00;;;;;;;21.86;78.33;99669.16;225139;1265;138592;-73
2023/09/26 11:06:01;;;;;;;17.30;15.30;;;;;;;21.85;78.43;99663.11;225258;1258;138873;-73
2023/09/26 11:11:03;;;;;;;14.90;13.00;;;;;;;21.94;78.70;99659.31;225319;1270;138974;-73
2023/09/26 11:16:06;;;;;;;16.10;14.00;;;;;;;22.03;78.57;99650.41;225104;1256;138880;-72
2023/09/26 11:21:08;;;;;;;18.10;14.60;;;;;;;22.09;78.38;99649.56;225218;1266;22560;-73
2023/09/26 11:26:30;;;;;;;15.20;13.60;;;;;;;22.19;78.56;99640.09;225327;1265;25558;-73
2023/09/26 11:31:33;;;;;;;15.60;13.80;;;;;;;22.34;78.62;99631.36;225391;1272;138398;-73
2023/09/26 11:36:37;;;;;;;15.10;12.40;;;;;;;22.44;78.15;99637.33;225330;1276;138763;-73
2023/09/26 11:41:39;;;;;;;14.80;12.00;;;;;;;22.51;78.14;99632.95;225398;1273;139683;-73
2023/09/26 11:46:51;;;;;;;16.10;12.40;;;;;;;22.63;78.23;99623.59;225402;1268;138702;-73
2023/09/26 11:51:53;;;;;;;13.80;11.90;;;;;;;22.82;78.20;99621.38;225386;1260;138982;-73
2023/09/26 11:56:55;;;;;;;15.10;11.40;;;;;;;22.89;77.67;99618.40;225465;1276;22565;-73
2023/09/26 12:02:00;;;;;;;12.00;9.80;;;;;;;22.98;77.42;99613.90;225845;1277;138505;-72
2023/09/26 12:07:03;;;;;;;15.00;11.40;;;;;;;23.08;77.49;99607.79;225730;1257;138477;-72
2023/09/26 12:12:05;;;;;;;12.70;10.90;;;;;;;23.26;77.60;99598.95;225304;1267;138757;-72
2023/09/26 12:17:07;;;;;;;10.90;9.50;;;;;;;23.41;77.16;99593.05;225408;1274;139804;-72
2023/09/26 12:22:10;;;;;;;12.50;10.00;;;;;;;23.55;76.87;99588.33;225405;1273;138614;-73
2023/09/26 12:27:11;;;;;;;12.90;9.60;;;;;;;23.67;76.21;99582.75;225561;1276;25431;-73
2023/09/26 12:32:13;;;;;;;12.90;9.50;;;;;;;23.72;75.91;99580.16;225355;1274;138354;-73
2023/09/26 12:37:15;;;;;;;11.40;9.50;;;;;;;23.80;75.95;99577.27;225327;1266;138421;-74
2023/09/26 12:42:17;;;;;;;9.50;8.50;;;;;;;23.96;75.91;99567.38;225381;1267;139609;-74
2023/09/26 12:47:20;;;;;;;10.50;9.00;;;;;;;24.10;75.63;99567.29;225429;1269;138453;-74
2023/09/26 12:52:26;;;;;;;12.80;9.70;;;;;;;24.24;75.35;99563.82;225279;1272;138587;-74
2023/09/26 12:57:29;;;;;;;8.90;7.80;;;;;;;24.39;74.96;99566.80;225449;1280;22546;-74
2023/09/26 13:02:30;;;;;;;9.90;8.90;;;;;;;24.47;74.21;99562.65;225436;1257;138075;-75
2023/09/26 13:07:33;;;;;;;13.00;9.20;;;;;;;24.57;74.08;99559.64;225381;1273;138772;-74
2023/09/26 13:12:38;;;;;;;9.70;8.50;;;;;;;24.64;73.62;99556.70;225255;1274;138584;-74
2023/09/26 13:17:40;;;;;;;8.60;7.70;;;;;;;24.73;73.34;99554.55;225276;1260;138581;-75
2023/09/26 13:22:42;;;;;;;10.40;7.80;;;;;;;24.81;73.00;99551.79;225349;1269;138376;-73
2023/09/26 13:27:44;;;;;;;8.80;7.00;;;;;;;24.90;72.16;99550.92;225063;1263;139130;-73
2023/09/26 13:32:46;;;;;;;8.60;7.70;;;;;;;24.93;71.77;99547.10;225093;1267;23060;-74
2023/09/26 13:37:48;;;;;;;8.80;7.60;;;;;;;25.01;71.79;99541.48;225087;1280;138289;-74
2023/09/26 13:42:49;;;;;;;7.80;6.90;;;;;;;25.06;71.23;99540.38;224538;1258;435055;-74
2023/09/26 13:47:51;;;;;;;8.10;7.30;;;;;;;25.09;70.87;99538.80;225188;1265;138683;-74
2023/09/26 13:52:54;;;;;;;10.20;7.60;;;;;;;25.12;70.30;99533.58;224138;1273;137754;-74
2023/09/26 13:57:57;;;;;;;10.00;8.00;;;;;;;25.14;69.92;99527.41;224359;1267;138077;-73
2023/09/26 14:02:59;;;;;;;11.50;8.40;;;;;;;25.18;69.80;99527.27;224408;1273;22540;-72
2023/09/26 14:08:01;;;;;;;9.00;7.70;;;;;;;25.19;69.49;99524.84;224238;1270;137554;-72
2023/09/26 14:13:04;;;;;;;9.50;7.20;;;;;;;25.25;69.57;99522.20;224596;1277;137587;-72
2023/09/26 14:18:06;;;;;;;9.80;7.60;;;;;;;25.30;69.26;99519.84;224726;1274;137833;-72
2023/09/26 14:23:08;;;;;;;8.80;6.40;;;;;;;25.37;69.01;99526.90;224828;1270;138891;-72
2023/09/26 14:28:10;;;;;;;7.70;7.00;;;;;;;25.39;68.81;99526.36;225050;1278;137725;-71
2023/09/26 14:33:12;;;;;;;7.80;6.90;;;;;;;25.35;68.19;99521.96;225452;1275;22590;-71
2023/09/26 14:38:14;;;;;;;10.10;6.30;;;;;;;25.27;67.77;99515.77;225349;1278;137547;-72
2023/09/26 14:43:16;;;;;;;12.90;7.30;;;;;;;25.25;68.00;99514.30;225518;1279;137859;-71
2023/09/26 14:48:18;;;;;;;9.60;6.70;;;;;;;25.20;67.88;99510.66;225660;1281;139180;-72
2023/09/26 14:53:20;;;;;;;6.90;6.20;;;;;;;25.16;67.95;99507.30;225650;1275;137671;-72
2023/09/26 14:58:22;;;;;;;8.20;6.30;;;;;;;25.12;67.99;99508.85;225641;1273;137783;-72
2023/09/26 15:03:24;;;;;;;8.00;6.30;;;;;;;25.08;68.09;99506.79;225729;1280;25268;-72
2023/09/26 15:08:26;;;;;;;9.70;6.30;;;;;;;25.00;67.80;99502.64;225701;1281;138450;-72
2023/09/26 15:13:31;;;;;;;9.80;6.30;;;;;;;24.91;67.96;99497.77;225487;1278;138635;-72
2023/09/26 15:18:33;;;;;;;8.10;6.20;;;;;;;24.84;67.88;99497.73;225690;1274;137958;-72
2023/09/26 15:23:35;;;;;;;9.10;6.40;;;;;;;24.78;67.95;99497.21;225727;1278;137726;-72
2023/09/26 15:28:37;;;;;;;7.50;6.10;;;;;;;24.65;68.00;99496.06;225658;1280;137895;-72
2023/09/26 15:33:39;;;;;;;8.50;6.40;;;;;;;24.49;68.33;99498.20;225657;1275;138166;-71
2023/09/26 15:38:41;;;;;;;8.10;6.80;;;;;;;24.31;68.55;99498.77;225612;1281;22666;-72
2023/09/26 15:43:46;;;;;;;9.80;6.70;;;;;;;24.13;68.89;99493.48;225638;1276;138314;-72
2023/09/26 15:48:49;;;;;;;8.60;6.70;;;;;;;23.99;69.25;99495.11;225679;1278;138650;-71
2023/09/26 15:53:51;;;;;;;9.20;6.50;;;;;;;23.82;69.53;99491.52;225682;1273;138593;-72
2023/09/26 15:58:53;;;;;;;9.90;6.70;;;;;;;23.66;69.98;99489.42;225537;1280;138486;-71
2023/09/26 16:03:56;;;;;;;9.60;6.70;;;;;;;23.48;70.42;99492.74;225589;1275;138398;-72
2023/09/26 16:09:00;;;;;;;13.50;7.10;;;;;;;23.28;70.85;99492.89;225826;1279;22716;-73
2023/09/26 16:14:03;;;;;;;9.10;7.10;;;;;;;23.08;71.37;99499.03;225679;1280;138909;-73
2023/09/26 16:19:06;;;;;;;10.10;7.50;;;;;;;22.88;71.92;99496.79;225524;1280;138265;-72
2023/09/26 16:24:07;;;;;;;10.20;7.20;;;;;;;22.68;72.34;99494.12;225512;1273;139357;-73
2023/09/26 16:29:10;;;;;;;12.40;7.90;;;;;;;22.46;72.80;99492.80;225495;1280;138596;-72
2023/09/26 16:34:12;;;;;;;12.60;8.30;;;;;;;22.25;73.20;99494.15;225639;1275;139208;-71
2023/09/26 16:39:14;;;;;;;11.80;8.00;;;;;;;22.04;73.74;99495.88;225733;1278;22539;-72
2023/09/26 16:44:15;;;;;;;11.70;8.10;;;;;;;21.82;74.22;99498.23;225668;1275;139330;-73
2023/09/26 16:49:18;;;;;;;8.50;7.40;;;;;;;21.65;74.84;99499.45;225635;1281;138458;-71
2023/09/26 16:54:20;;;;;;;12.20;8.90;;;;;;;21.51;75.19;99503.48;225480;1280;138587;-72
2023/09/26 16:59:22;;;;;;;14.80;9.70;;;;;;;21.33;75.47;99506.19;225665;1281;138831;-72
2023/09/26 17:04:24;;;;;;;15.00;11.50;;;;;;;21.18;75.91;99509.05;225650;1278;138939;-71
2023/09/26 17:09:27;;;;;;;16.60;10.10;;;;;;;21.03;76.22;99514.31;225641;1279;22725;-71
2023/09/26 17:14:28;;;;;;;10.70;9.10;;;;;;;20.92;76.92;99514.67;225716;1258;138868;-71
2023/09/26 17:19:30;;;;;;;10.50;9.40;;;;;;;20.81;77.23;99517.81;225699;1278;138555;-72
2023/09/26 17:24:32;;;;;;;12.10;8.80;;;;;;;20.72;77.56;99513.23;225618;1278;138923;-71
2023/09/26 17:29:34;;;;;;;12.90;9.90;;;;;;;20.60;77.80;99512.00;225670;1281;138728;-71
2023/09/26 17:34:36;;;;;;;13.50;10.00;;;;;;;20.48;78.04;99515.59;225653;1279;139177;-72
2023/09/26 17:39:38;;;;;;;13.80;11.00;;;;;;;20.33;78.16;99517.59;225630;1278;139020;-72
2023/09/26 17:44:41;;;;;;;15.40;11.40;;;;;;;20.16;78.46;99519.66;225849;1278;22552;-72
2023/09/26 17:49:43;;;;;;;12.10;10.30;;;;;;;20.02;78.88;99519.75;225698;1278;138544;-73
2023/09/26 17:54:45;;;;;;;13.00;10.20;;;;;;;19.89;79.24;99520.05;225656;1281;139070;-73
2023/09/26 17:59:47;;;;;;;13.10;10.10;;;;;;;19.80;79.75;99519.65;225638;1281;138874;-71
2023/09/26 18:04:51;;;;;;;13.00;9.80;;;;;;;19.72;80.29;99519.36;225699;1274;138745;-72
2023/09/26 18:09:53;;;;;;;12.70;11.00;;;;;;;19.64;80.47;99526.60;225563;1280;138678;-72
2023/09/26 18:14:55;;;;;;;17.30;12.00;;;;;;;19.54;80.71;99528.98;225811;1275;22541;-72
2023/09/26 18:19:57;;;;;;;14.90;12.80;;;;;;;19.45;81.11;99525.54;225585;1280;139469;-72
2023/09/26 18:24:59;;;;;;;15.10;12.90;;;;;;;19.38;81.43;99525.45;225687;1279;138785;-72
2023/09/26 18:30:02;;;;;;;16.10;13.30;;;;;;;19.30;81.49;99529.35;225506;1271;138931;-72
2023/09/26 18:35:07;;;;;;;16.40;13.60;;;;;;;19.19;81.80;99528.63;225709;1275;138876;-71
2023/09/26 18:40:10;;;;;;;15.90;13.70;;;;;;;19.08;81.93;99534.70;225665;1281;139204;-72
2023/09/26 18:45:12;;;;;;;18.10;13.90;;;;;;;18.97;82.12;99535.77;225804;1279;22570;-73
2023/09/26 18:50:14;;;;;;;18.20;15.20;;;;;;;18.86;82.44;99536.40;225725;1280;138529;-73
2023/09/26 18:55:16;;;;;;;15.60;13.60;;;;;;;18.75;82.68;99536.17;225681;1281;138893;-72
2023/09/26 19:00:19;;;;;;;17.60;14.60;;;;;;;18.68;83.25;99533.96;225619;1280;139139;-72
2023/09/26 19:05:21;;;;;;;18.10;14.60;;;;;;;18.65;83.54;99534.06;225721;1274;138832;-73
2023/09/26 19:10:23;;;;;;;17.90;15.10;;;;;;;18.61;83.67;99531.02;225687;1280;138771;-72
2023/09/26 19:15:26;;;;;;;19.50;15.20;;;;;;;18.56;83.82;99537.13;225801;1281;22574;-73
2023/09/26 19:20:29;;;;;;;17.60;14.90;;;;;;;18.55;84.22;99534.80;225563;1281;138550;-72
2023/09/26 19:25:33;;;;;;;20.80;15.90;;;;;;;18.49;84.15;99538.15;225594;1275;138830;-72
2023/09/26 19:30:38;;;;;;;18.40;15.30;;;;;;;18.41;84.21;99537.89;225502;1280;138798;-72
2023/09/26 19:35:40;;;;;;;17.90;15.00;;;;;;;18.36;84.67;99537.04;225635;1281;139741;-73
2023/09/26 19:40:42;;;;;;;21.00;15.90;;;;;;;18.36;85.04;99537.20;225686;1280;138945;-71
2023/09/26 19:45:43;;;;;;;18.50;15.80;;;;;;;18.35;84.87;99534.38;225742;1279;138954;-72
2023/09/26 19:50:45;;;;;;;20.80;16.50;;;;;;;18.27;84.88;99533.40;225678;1279;22550;-72
2023/09/26 19:55:49;;;;;;;19.00;16.20;;;;;;;18.20;85.12;99527.13;225651;1275;138525;-72
2023/09/26 20:00:51;;;;;;;18.40;16.50;;;;;;;18.16;85.30;99529.45;225729;1275;139700;-72
2023/09/26 20:05:53;;;;;;;22.80;15.90;;;;;;;18.09;85.17;99531.79;225689;1278;139699;-72
2023/09/26 20:10:55;;;;;;;21.20;16.60;;;;;;;17.98;85.17;99533.84;225639;1280;139006;-73
2023/09/26 20:15:58;;;;;;;20.90;16.80;;;;;;;17.87;85.26;99532.23;225403;1281;139577;-72
2023/09/26 20:21:00;;;;;;;20.40;17.30;;;;;;;17.75;85.28;99535.58;225744;1278;22547;-71
2023/09/26 20:26:03;;;;;;;23.00;18.60;;;;;;;17.63;85.57;99542.58;225514;1276;139031;-72
2023/09/26 20:31:14;;;;;;;22.60;18.40;;;;;;;17.53;85.77;99538.09;225713;1278;138555;-72
2023/09/26 20:36:16;;;;;;;22.80;18.60;;;;;;;17.44;86.05;99537.45;225693;1274;138826;-72
2023/09/26 20:41:18;;;;;;;26.60;18.20;;;;;;;17.36;86.27;99536.42;225679;1278;138856;-72
2023/09/26 20:46:20;;;;;;;22.40;18.80;;;;;;;17.31;86.58;99538.95;225685;1279;138774;-71
2023/09/26 20:51:23;;;;;;;21.70;18.10;;;;;;;17.26;86.70;99538.93;225760;1281;22566;-72
2023/09/26 20:56:26;;;;;;;22.30;19.10;;;;;;;17.18;86.53;99543.66;225606;1281;138382;-72
2023/09/26 21:01:28;;;;;;;22.20;19.00;;;;;;;17.11;86.73;99543.31;225651;1278;139019;-71
2023/09/26 21:06:30;;;;;;;26.70;20.70;;;;;;;17.06;87.00;99545.35;225728;1279;139200;-72
2023/09/26 21:11:39;;;;;;;22.40;19.90;;;;;;;17.00;87.09;99544.34;225669;1281;139473;-76
2023/09/26 21:16:41;;;;;;;24.10;20.80;;;;;;;16.92;87.13;99552.73;225681;1278;138906;-72
2023/09/26 21:21:43;;;;;;;27.30;21.10;;;;;;;16.84;87.05;99551.00;225712;1278;138755;-72
2023/09/26 21:26:45;;;;;;;23.90;19.70;;;;;;;16.79;87.13;99552.52;225702;1278;26066;-71
2023/09/26 21:31:47;;;;;;;23.70;21.20;;;;;;;16.72;87.25;99558.79;225703;1278;138421;-71
2023/09/26 21:36:49;;;;;;;25.50;21.80;;;;;;;16.65;87.40;99558.13;225666;1274;139173;-72
2023/09/26 21:41:50;;;;;;;25.80;21.40;;;;;;;16.58;87.53;99557.55;225678;1275;138821;-72
2023/09/26 21:46:52;;;;;;;24.10;21.50;;;;;;;16.52;87.61;99559.56;225667;1281;139160;-72
2023/09/26 21:51:55;;;;;;;26.90;20.80;;;;;;;16.46;87.73;99564.84;225695;1281;139061;-72
2023/09/26 21:56:57;;;;;;;26.50;21.50;;;;;;;16.40;87.78;99562.98;225645;1280;22595;-72
2023/09/26 22:01:59;;;;;;;27.30;21.70;;;;;;;16.34;87.99;99562.54;225653;1279;138492;-71
2023/09/26 22:07:02;;;;;;;28.40;21.40;;;;;;;16.28;88.13;99559.84;225712;1278;138986;-71
2023/09/26 22:12:04;;;;;;;24.80;21.80;;;;;;;16.22;88.28;99560.48;225694;1279;139414;-71
2023/09/26 22:17:06;;;;;;;25.20;21.80;;;;;;;16.17;88.21;99560.98;225700;1278;138883;-72
2023/09/26 22:22:10;;;;;;;24.80;21.30;;;;;;;16.14;88.58;99565.98;225716;1279;138972;-72
2023/09/26 22:27:13;;;;;;;28.00;22.90;;;;;;;16.10;88.67;99566.59;225752;1275;22559;-72
2023/09/26 22:32:15;;;;;;;23.80;21.30;;;;;;;16.04;88.65;99566.18;225690;1277;138460;-71
2023/09/26 22:37:16;;;;;;;28.80;23.50;;;;;;;15.97;88.70;99567.65;225650;1275;139433;-72
2023/09/26 22:42:18;;;;;;;29.70;23.50;;;;;;;15.90;88.68;99568.75;225548;1276;138883;-72
2023/09/26 22:47:21;;;;;;;31.00;22.70;;;;;;;15.84;88.92;99566.16;225639;1281;138748;-72